sensor_id;sensor_type;location;lat;lon;timestamp;P1;durP1;ratioP1;P2;durP2;ratioP2
21270;SDS011;10795;50.796;3.860;2022-11-15T00:00:29;32.67;;;20.75;;
21270;SDS011;10795;50.796;3.860;2022-11-15T00:03:14;30.73;;;18.85;;
21270;SDS011;10795;50.796;3.860;2022-11-15T00:06:06;33.28;;;21.35;;
21270;SDS011;10795;50.796;3.860;2022-11-15T00:08:50;21.25;;;16.25;;
21270;SDS011;10795;50.796;3.860;2022-11-15T00:11:34;29.73;;;19.67;;
21270;SDS011;10795;50.796;3.860;2022-11-15T00:14:19;19.52;;;14.40;;
21270;SDS011;10795;50.796;3.860;2022-11-15T00:17:02;12.32;;;10.02;;
21270;SDS011;10795;50.796;3.860;2022-11-15T00:19:46;12.90;;;9.13;;
21270;SDS011;10795;50.796;3.860;2022-11-15T00:22:32;19.63;;;12.88;;
21270;SDS011;10795;50.796;3.860;2022-11-15T00:25:16;18.48;;;14.30;;
21270;SDS011;10795;50.796;3.860;2022-11-15T00:28:00;15.70;;;10.63;;
21270;SDS011;10795;50.796;3.860;2022-11-15T00:30:45;14.82;;;10.50;;
21270;SDS011;10795;50.796;3.860;2022-11-15T00:33:29;18.45;;;13.60;;
21270;SDS011;10795;50.796;3.860;2022-11-15T00:36:13;13.57;;;8.07;;
21270;SDS011;10795;50.796;3.860;2022-11-15T00:38:57;15.90;;;10.57;;
21270;SDS011;10795;50.796;3.860;2022-11-15T00:41:41;24.80;;;16.35;;
21270;SDS011;10795;50.796;3.860;2022-11-15T00:44:26;16.85;;;11.45;;
21270;SDS011;10795;50.796;3.860;2022-11-15T00:47:10;30.90;;;17.65;;
21270;SDS011;10795;50.796;3.860;2022-11-15T00:49:54;19.65;;;15.10;;
21270;SDS011;10795;50.796;3.860;2022-11-15T00:52:38;31.73;;;17.73;;
21270;SDS011;10795;50.796;3.860;2022-11-15T00:55:22;24.15;;;16.33;;
21270;SDS011;10795;50.796;3.860;2022-11-15T00:58:06;30.35;;;17.35;;
21270;SDS011;10795;50.796;3.860;2022-11-15T01:00:50;17.45;;;13.82;;
21270;SDS011;10795;50.796;3.860;2022-11-15T01:03:35;22.60;;;14.35;;
21270;SDS011;10795;50.796;3.860;2022-11-15T01:06:20;17.50;;;10.63;;
21270;SDS011;10795;50.796;3.860;2022-11-15T01:09:04;21.42;;;14.60;;
21270;SDS011;10795;50.796;3.860;2022-11-15T01:11:48;16.98;;;11.48;;
21270;SDS011;10795;50.796;3.860;2022-11-15T01:14:32;25.02;;;17.23;;
21270;SDS011;10795;50.796;3.860;2022-11-15T01:17:16;13.10;;;9.93;;
21270;SDS011;10795;50.796;3.860;2022-11-15T01:20:00;21.98;;;15.18;;
21270;SDS011;10795;50.796;3.860;2022-11-15T01:22:45;11.20;;;8.10;;
21270;SDS011;10795;50.796;3.860;2022-11-15T01:25:29;14.95;;;11.45;;
21270;SDS011;10795;50.796;3.860;2022-11-15T01:28:13;13.20;;;8.95;;
21270;SDS011;10795;50.796;3.860;2022-11-15T01:30:57;18.65;;;12.52;;
21270;SDS011;10795;50.796;3.860;2022-11-15T01:33:43;14.18;;;9.07;;
21270;SDS011;10795;50.796;3.860;2022-11-15T01:36:27;16.08;;;10.48;;
21270;SDS011;10795;50.796;3.860;2022-11-15T01:39:11;20.45;;;14.88;;
21270;SDS011;10795;50.796;3.860;2022-11-15T01:41:55;22.52;;;14.05;;
21270;SDS011;10795;50.796;3.860;2022-11-15T01:44:41;14.05;;;10.10;;
21270;SDS011;10795;50.796;3.860;2022-11-15T01:47:30;27.15;;;16.00;;
21270;SDS011;10795;50.796;3.860;2022-11-15T01:50:18;13.23;;;10.70;;
21270;SDS011;10795;50.796;3.860;2022-11-15T01:53:05;15.15;;;10.75;;
21270;SDS011;10795;50.796;3.860;2022-11-15T01:55:49;16.90;;;11.45;;
21270;SDS011;10795;50.796;3.860;2022-11-15T01:58:33;17.65;;;13.15;;
21270;SDS011;10795;50.796;3.860;2022-11-15T02:01:19;12.30;;;8.82;;
21270;SDS011;10795;50.796;3.860;2022-11-15T02:04:05;22.73;;;14.32;;
21270;SDS011;10795;50.796;3.860;2022-11-15T02:06:52;13.05;;;9.82;;
21270;SDS011;10795;50.796;3.860;2022-11-15T02:09:36;19.05;;;13.20;;
21270;SDS011;10795;50.796;3.860;2022-11-15T02:12:21;17.42;;;12.35;;
21270;SDS011;10795;50.796;3.860;2022-11-15T02:15:06;18.75;;;11.65;;
21270;SDS011;10795;50.796;3.860;2022-11-15T02:18:35;17.25;;;12.25;;
21270;SDS011;10795;50.796;3.860;2022-11-15T02:36:43;14.85;;;10.27;;
21270;SDS011;10795;50.796;3.860;2022-11-15T02:39:42;12.00;;;7.93;;
21270;SDS011;10795;50.796;3.860;2022-11-15T02:42:52;13.82;;;8.48;;
21270;SDS011;10795;50.796;3.860;2022-11-15T02:46:01;10.02;;;6.45;;
21270;SDS011;10795;50.796;3.860;2022-11-15T02:48:52;9.63;;;6.78;;
21270;SDS011;10795;50.796;3.860;2022-11-15T02:51:37;13.95;;;9.20;;
21270;SDS011;10795;50.796;3.860;2022-11-15T02:54:23;8.57;;;5.47;;
21270;SDS011;10795;50.796;3.860;2022-11-15T02:57:14;11.73;;;8.05;;
21270;SDS011;10795;50.796;3.860;2022-11-15T03:00:03;9.07;;;5.43;;
21270;SDS011;10795;50.796;3.860;2022-11-15T03:09:03;16.17;;;8.02;;
21270;SDS011;10795;50.796;3.860;2022-11-15T03:11:56;12.77;;;6.78;;
21270;SDS011;10795;50.796;3.860;2022-11-15T03:14:50;13.45;;;7.35;;
21270;SDS011;10795;50.796;3.860;2022-11-15T03:20:39;15.45;;;6.75;;
21270;SDS011;10795;50.796;3.860;2022-11-15T03:23:23;11.93;;;6.85;;
21270;SDS011;10795;50.796;3.860;2022-11-15T03:26:10;13.75;;;8.20;;
21270;SDS011;10795;50.796;3.860;2022-11-15T03:28:57;11.48;;;6.82;;
21270;SDS011;10795;50.796;3.860;2022-11-15T03:31:51;10.60;;;6.30;;
21270;SDS011;10795;50.796;3.860;2022-11-15T03:34:41;10.88;;;6.68;;
21270;SDS011;10795;50.796;3.860;2022-11-15T03:37:42;10.20;;;6.75;;
21270;SDS011;10795;50.796;3.860;2022-11-15T03:40:44;13.48;;;6.65;;
21270;SDS011;10795;50.796;3.860;2022-11-15T03:49:36;6.28;;;3.63;;
21270;SDS011;10795;50.796;3.860;2022-11-15T03:52:24;8.70;;;4.32;;
21270;SDS011;10795;50.796;3.860;2022-11-15T03:55:10;12.65;;;5.72;;
21270;SDS011;10795;50.796;3.860;2022-11-15T03:57:57;10.15;;;6.10;;
21270;SDS011;10795;50.796;3.860;2022-11-15T04:00:43;8.52;;;4.95;;
21270;SDS011;10795;50.796;3.860;2022-11-15T04:03:27;11.40;;;6.28;;
21270;SDS011;10795;50.796;3.860;2022-11-15T04:06:11;12.82;;;6.80;;
21270;SDS011;10795;50.796;3.860;2022-11-15T04:08:56;9.82;;;5.53;;
21270;SDS011;10795;50.796;3.860;2022-11-15T04:11:40;10.43;;;5.78;;
21270;SDS011;10795;50.796;3.860;2022-11-15T04:14:24;11.38;;;6.70;;
21270;SDS011;10795;50.796;3.860;2022-11-15T04:17:08;6.32;;;4.25;;
21270;SDS011;10795;50.796;3.860;2022-11-15T04:19:52;6.57;;;3.78;;
21270;SDS011;10795;50.796;3.860;2022-11-15T04:22:56;8.30;;;4.47;;
21270;SDS011;10795;50.796;3.860;2022-11-15T04:26:01;5.75;;;3.63;;
21270;SDS011;10795;50.796;3.860;2022-11-15T04:28:47;7.15;;;4.78;;
21270;SDS011;10795;50.796;3.860;2022-11-15T04:31:50;9.18;;;4.63;;
21270;SDS011;10795;50.796;3.860;2022-11-15T04:34:34;7.25;;;4.03;;
21270;SDS011;10795;50.796;3.860;2022-11-15T04:37:18;6.55;;;4.10;;
21270;SDS011;10795;50.796;3.860;2022-11-15T04:40:03;6.38;;;4.03;;
21270;SDS011;10795;50.796;3.860;2022-11-15T04:42:47;6.75;;;4.00;;
21270;SDS011;10795;50.796;3.860;2022-11-15T04:45:31;6.53;;;4.15;;
21270;SDS011;10795;50.796;3.860;2022-11-15T04:48:15;5.28;;;4.25;;
21270;SDS011;10795;50.796;3.860;2022-11-15T04:50:59;8.90;;;4.55;;
21270;SDS011;10795;50.796;3.860;2022-11-15T04:53:43;4.97;;;3.08;;
21270;SDS011;10795;50.796;3.860;2022-11-15T04:56:27;7.88;;;3.25;;
21270;SDS011;10795;50.796;3.860;2022-11-15T04:59:11;8.43;;;3.40;;
21270;SDS011;10795;50.796;3.860;2022-11-15T05:01:55;11.32;;;3.95;;
21270;SDS011;10795;50.796;3.860;2022-11-15T05:04:39;4.95;;;3.10;;
21270;SDS011;10795;50.796;3.860;2022-11-15T05:07:23;5.95;;;3.28;;
21270;SDS011;10795;50.796;3.860;2022-11-15T05:10:07;9.95;;;3.88;;
21270;SDS011;10795;50.796;3.860;2022-11-15T05:12:52;6.85;;;2.70;;
21270;SDS011;10795;50.796;3.860;2022-11-15T05:15:37;10.77;;;3.40;;
21270;SDS011;10795;50.796;3.860;2022-11-15T05:18:20;4.30;;;3.00;;
21270;SDS011;10795;50.796;3.860;2022-11-15T05:21:05;10.68;;;3.40;;
21270;SDS011;10795;50.796;3.860;2022-11-15T05:23:50;9.27;;;2.78;;
21270;SDS011;10795;50.796;3.860;2022-11-15T05:26:34;6.72;;;3.20;;
21270;SDS011;10795;50.796;3.860;2022-11-15T05:29:18;6.63;;;3.25;;
21270;SDS011;10795;50.796;3.860;2022-11-15T05:32:04;6.05;;;2.80;;
21270;SDS011;10795;50.796;3.860;2022-11-15T05:34:49;4.85;;;3.08;;
21270;SDS011;10795;50.796;3.860;2022-11-15T05:37:34;10.00;;;3.50;;
21270;SDS011;10795;50.796;3.860;2022-11-15T05:40:18;7.60;;;3.60;;
21270;SDS011;10795;50.796;3.860;2022-11-15T05:43:02;4.18;;;2.55;;
21270;SDS011;10795;50.796;3.860;2022-11-15T05:45:48;7.07;;;3.17;;
21270;SDS011;10795;50.796;3.860;2022-11-15T05:48:36;4.38;;;2.65;;
21270;SDS011;10795;50.796;3.860;2022-11-15T05:51:24;6.97;;;3.10;;
21270;SDS011;10795;50.796;3.860;2022-11-15T05:54:12;9.95;;;3.40;;
21270;SDS011;10795;50.796;3.860;2022-11-15T05:56:57;5.22;;;2.60;;
21270;SDS011;10795;50.796;3.860;2022-11-15T05:59:42;6.32;;;2.75;;
21270;SDS011;10795;50.796;3.860;2022-11-15T06:02:27;5.00;;;3.28;;
21270;SDS011;10795;50.796;3.860;2022-11-15T06:05:11;7.53;;;3.47;;
21270;SDS011;10795;50.796;3.860;2022-11-15T06:07:58;4.82;;;2.60;;
21270;SDS011;10795;50.796;3.860;2022-11-15T06:10:43;3.60;;;2.45;;
21270;SDS011;10795;50.796;3.860;2022-11-15T06:13:27;5.30;;;3.13;;
21270;SDS011;10795;50.796;3.860;2022-11-15T06:16:11;11.50;;;3.70;;
21270;SDS011;10795;50.796;3.860;2022-11-15T06:18:55;3.75;;;3.45;;
21270;SDS011;10795;50.796;3.860;2022-11-15T06:21:39;7.75;;;2.83;;
21270;SDS011;10795;50.796;3.860;2022-11-15T06:24:23;7.47;;;3.53;;
21270;SDS011;10795;50.796;3.860;2022-11-15T06:27:07;5.25;;;3.58;;
21270;SDS011;10795;50.796;3.860;2022-11-15T06:29:51;10.52;;;4.18;;
21270;SDS011;10795;50.796;3.860;2022-11-15T06:32:35;5.47;;;3.28;;
21270;SDS011;10795;50.796;3.860;2022-11-15T06:35:20;8.07;;;3.97;;
21270;SDS011;10795;50.796;3.860;2022-11-15T06:38:08;5.30;;;2.63;;
21270;SDS011;10795;50.796;3.860;2022-11-15T06:40:53;8.90;;;4.63;;
21270;SDS011;10795;50.796;3.860;2022-11-15T06:43:37;7.55;;;4.10;;
21270;SDS011;10795;50.796;3.860;2022-11-15T06:46:22;10.65;;;4.40;;
21270;SDS011;10795;50.796;3.860;2022-11-15T06:49:07;5.78;;;4.50;;
21270;SDS011;10795;50.796;3.860;2022-11-15T06:51:51;11.10;;;4.90;;
21270;SDS011;10795;50.796;3.860;2022-11-15T06:54:35;12.13;;;5.63;;
21270;SDS011;10795;50.796;3.860;2022-11-15T06:57:19;7.20;;;4.82;;
21270;SDS011;10795;50.796;3.860;2022-11-15T07:00:04;7.35;;;4.10;;
21270;SDS011;10795;50.796;3.860;2022-11-15T07:02:49;12.20;;;5.45;;
21270;SDS011;10795;50.796;3.860;2022-11-15T07:05:34;9.40;;;4.90;;
21270;SDS011;10795;50.796;3.860;2022-11-15T07:08:19;10.43;;;4.95;;
21270;SDS011;10795;50.796;3.860;2022-11-15T07:11:05;15.25;;;5.57;;
21270;SDS011;10795;50.796;3.860;2022-11-15T07:13:50;11.60;;;5.60;;
21270;SDS011;10795;50.796;3.860;2022-11-15T07:16:35;18.70;;;5.97;;
21270;SDS011;10795;50.796;3.860;2022-11-15T07:19:20;9.45;;;5.53;;
21270;SDS011;10795;50.796;3.860;2022-11-15T07:22:04;21.38;;;6.00;;
21270;SDS011;10795;50.796;3.860;2022-11-15T07:24:48;8.95;;;4.68;;
21270;SDS011;10795;50.796;3.860;2022-11-15T07:27:32;12.00;;;5.65;;
21270;SDS011;10795;50.796;3.860;2022-11-15T07:30:17;11.68;;;5.30;;
21270;SDS011;10795;50.796;3.860;2022-11-15T07:33:01;11.02;;;5.20;;
21270;SDS011;10795;50.796;3.860;2022-11-15T07:35:45;8.35;;;5.00;;
21270;SDS011;10795;50.796;3.860;2022-11-15T07:38:33;8.25;;;4.80;;
21270;SDS011;10795;50.796;3.860;2022-11-15T07:41:19;9.48;;;5.55;;
21270;SDS011;10795;50.796;3.860;2022-11-15T07:44:03;10.95;;;5.53;;
21270;SDS011;10795;50.796;3.860;2022-11-15T07:46:47;7.57;;;4.80;;
21270;SDS011;10795;50.796;3.860;2022-11-15T07:49:31;8.82;;;4.85;;
21270;SDS011;10795;50.796;3.860;2022-11-15T07:52:16;7.00;;;4.70;;
21270;SDS011;10795;50.796;3.860;2022-11-15T07:55:00;10.02;;;4.90;;
21270;SDS011;10795;50.796;3.860;2022-11-15T07:57:44;7.10;;;4.00;;
21270;SDS011;10795;50.796;3.860;2022-11-15T08:00:28;8.50;;;4.20;;
21270;SDS011;10795;50.796;3.860;2022-11-15T08:03:14;8.38;;;3.90;;
21270;SDS011;10795;50.796;3.860;2022-11-15T08:05:59;8.73;;;3.38;;
21270;SDS011;10795;50.796;3.860;2022-11-15T08:08:44;8.68;;;3.88;;
21270;SDS011;10795;50.796;3.860;2022-11-15T08:11:30;9.55;;;3.90;;
21270;SDS011;10795;50.796;3.860;2022-11-15T08:14:14;5.68;;;2.83;;
21270;SDS011;10795;50.796;3.860;2022-11-15T08:16:58;7.60;;;3.97;;
21270;SDS011;10795;50.796;3.860;2022-11-15T08:19:42;6.53;;;3.35;;
21270;SDS011;10795;50.796;3.860;2022-11-15T08:22:26;11.75;;;4.05;;
21270;SDS011;10795;50.796;3.860;2022-11-15T08:25:11;8.82;;;3.60;;
21270;SDS011;10795;50.796;3.860;2022-11-15T08:27:55;12.48;;;4.22;;
21270;SDS011;10795;50.796;3.860;2022-11-15T08:30:42;8.63;;;3.90;;
21270;SDS011;10795;50.796;3.860;2022-11-15T08:33:29;5.85;;;3.53;;
21270;SDS011;10795;50.796;3.860;2022-11-15T08:36:15;10.68;;;2.92;;
21270;SDS011;10795;50.796;3.860;2022-11-15T08:39:00;6.20;;;2.50;;
21270;SDS011;10795;50.796;3.860;2022-11-15T08:41:44;7.50;;;3.75;;
21270;SDS011;10795;50.796;3.860;2022-11-15T08:44:28;5.70;;;2.25;;
21270;SDS011;10795;50.796;3.860;2022-11-15T08:47:12;6.45;;;3.20;;
21270;SDS011;10795;50.796;3.860;2022-11-15T08:49:57;5.68;;;2.75;;
21270;SDS011;10795;50.796;3.860;2022-11-15T08:52:41;6.53;;;2.70;;
21270;SDS011;10795;50.796;3.860;2022-11-15T08:55:25;10.05;;;3.35;;
21270;SDS011;10795;50.796;3.860;2022-11-15T08:58:09;6.90;;;2.10;;
21270;SDS011;10795;50.796;3.860;2022-11-15T09:00:54;4.85;;;2.15;;
21270;SDS011;10795;50.796;3.860;2022-11-15T09:03:39;8.15;;;2.08;;
21270;SDS011;10795;50.796;3.860;2022-11-15T09:06:24;7.00;;;2.00;;
21270;SDS011;10795;50.796;3.860;2022-11-15T09:09:08;7.32;;;2.35;;
21270;SDS011;10795;50.796;3.860;2022-11-15T09:11:52;4.22;;;1.60;;
21270;SDS011;10795;50.796;3.860;2022-11-15T09:14:36;5.95;;;1.92;;
21270;SDS011;10795;50.796;3.860;2022-11-15T09:17:20;4.53;;;1.52;;
21270;SDS011;10795;50.796;3.860;2022-11-15T09:20:05;8.23;;;1.92;;
21270;SDS011;10795;50.796;3.860;2022-11-15T09:22:50;8.85;;;1.83;;
21270;SDS011;10795;50.796;3.860;2022-11-15T09:25:34;4.85;;;1.60;;
21270;SDS011;10795;50.796;3.860;2022-11-15T09:28:19;3.42;;;1.42;;
21270;SDS011;10795;50.796;3.860;2022-11-15T09:31:04;5.07;;;1.50;;
21270;SDS011;10795;50.796;3.860;2022-11-15T09:33:49;3.80;;;1.50;;
21270;SDS011;10795;50.796;3.860;2022-11-15T09:36:34;5.93;;;2.13;;
21270;SDS011;10795;50.796;3.860;2022-11-15T09:39:18;10.02;;;1.42;;
21270;SDS011;10795;50.796;3.860;2022-11-15T09:42:07;10.05;;;2.10;;
21270;SDS011;10795;50.796;3.860;2022-11-15T09:45:18;7.97;;;1.35;;
21270;SDS011;10795;50.796;3.860;2022-11-15T09:48:19;7.97;;;1.80;;
21270;SDS011;10795;50.796;3.860;2022-11-15T09:51:29;4.60;;;1.50;;
21270;SDS011;10795;50.796;3.860;2022-11-15T09:54:03;4.18;;;1.63;;
21270;SDS011;10795;50.796;3.860;2022-11-15T09:56:31;4.53;;;1.88;;
21270;SDS011;10795;50.796;3.860;2022-11-15T10:01:46;7.10;;;1.65;;
21270;SDS011;10795;50.796;3.860;2022-11-15T10:04:22;6.95;;;1.50;;
21270;SDS011;10795;50.796;3.860;2022-11-15T10:09:38;4.63;;;1.40;;
21270;SDS011;10795;50.796;3.860;2022-11-15T10:12:10;6.45;;;1.30;;
21270;SDS011;10795;50.796;3.860;2022-11-15T10:14:39;8.95;;;1.30;;
21270;SDS011;10795;50.796;3.860;2022-11-15T10:17:21;4.03;;;1.20;;
21270;SDS011;10795;50.796;3.860;2022-11-15T10:20:25;6.53;;;1.45;;
21270;SDS011;10795;50.796;3.860;2022-11-15T10:22:54;4.63;;;1.30;;
21270;SDS011;10795;50.796;3.860;2022-11-15T10:25:27;9.73;;;1.60;;
21270;SDS011;10795;50.796;3.860;2022-11-15T10:28:01;5.40;;;1.38;;
21270;SDS011;10795;50.796;3.860;2022-11-15T10:30:39;6.78;;;1.23;;
21270;SDS011;10795;50.796;3.860;2022-11-15T10:41:18;2.67;;;0.90;;
21270;SDS011;10795;50.796;3.860;2022-11-15T10:44:02;2.50;;;1.05;;
21270;SDS011;10795;50.796;3.860;2022-11-15T10:46:35;4.97;;;1.08;;
21270;SDS011;10795;50.796;3.860;2022-11-15T10:51:50;5.95;;;1.20;;
21270;SDS011;10795;50.796;3.860;2022-11-15T10:54:39;15.18;;;1.73;;
21270;SDS011;10795;50.796;3.860;2022-11-15T10:57:14;5.82;;;1.02;;
21270;SDS011;10795;50.796;3.860;2022-11-15T10:59:45;7.30;;;1.10;;
21270;SDS011;10795;50.796;3.860;2022-11-15T11:05:03;4.35;;;1.02;;
21270;SDS011;10795;50.796;3.860;2022-11-15T11:10:42;5.93;;;1.50;;
21270;SDS011;10795;50.796;3.860;2022-11-15T11:13:34;4.07;;;0.95;;
21270;SDS011;10795;50.796;3.860;2022-11-15T11:21:30;4.13;;;0.77;;
21270;SDS011;10795;50.796;3.860;2022-11-15T11:24:21;9.25;;;1.20;;
21270;SDS011;10795;50.796;3.860;2022-11-15T11:48:07;9.80;;;1.13;;
21270;SDS011;10795;50.796;3.860;2022-11-15T11:50:44;4.13;;;1.20;;
21270;SDS011;10795;50.796;3.860;2022-11-15T12:01:32;5.47;;;1.05;;
21270;SDS011;10795;50.796;3.860;2022-11-15T12:09:16;3.10;;;1.05;;
21270;SDS011;10795;50.796;3.860;2022-11-15T12:11:47;6.05;;;1.02;;
21270;SDS011;10795;50.796;3.860;2022-11-15T12:17:11;2.50;;;1.10;;
21270;SDS011;10795;50.796;3.860;2022-11-15T12:19:38;3.85;;;1.02;;
21270;SDS011;10795;50.796;3.860;2022-11-15T12:22:09;7.50;;;1.40;;
21270;SDS011;10795;50.796;3.860;2022-11-15T12:24:51;5.20;;;1.50;;
21270;SDS011;10795;50.796;3.860;2022-11-15T12:30:10;5.55;;;1.27;;
21270;SDS011;10795;50.796;3.860;2022-11-15T12:32:51;2.10;;;0.97;;
21270;SDS011;10795;50.796;3.860;2022-11-15T12:35:32;3.88;;;1.25;;
21270;SDS011;10795;50.796;3.860;2022-11-15T12:37:59;5.43;;;1.30;;
21270;SDS011;10795;50.796;3.860;2022-11-15T12:45:37;1.63;;;1.00;;
21270;SDS011;10795;50.796;3.860;2022-11-15T13:01:09;3.90;;;1.02;;
21270;SDS011;10795;50.796;3.860;2022-11-15T13:03:35;6.15;;;1.15;;
21270;SDS011;10795;50.796;3.860;2022-11-15T13:09:53;3.88;;;1.20;;
21270;SDS011;10795;50.796;3.860;2022-11-15T13:17:02;2.70;;;1.17;;
21270;SDS011;10795;50.796;3.860;2022-11-15T13:19:37;3.92;;;0.98;;
21270;SDS011;10795;50.796;3.860;2022-11-15T13:22:09;3.22;;;1.00;;
21270;SDS011;10795;50.796;3.860;2022-11-15T13:24:54;4.40;;;1.10;;
21270;SDS011;10795;50.796;3.860;2022-11-15T13:27:20;1.48;;;0.82;;
21270;SDS011;10795;50.796;3.860;2022-11-15T13:29:46;3.95;;;1.48;;
21270;SDS011;10795;50.796;3.860;2022-11-15T13:32:13;2.70;;;0.80;;
21270;SDS011;10795;50.796;3.860;2022-11-15T13:34:44;3.00;;;1.13;;
21270;SDS011;10795;50.796;3.860;2022-11-15T13:39:46;4.53;;;1.23;;
21270;SDS011;10795;50.796;3.860;2022-11-15T13:42:16;2.17;;;1.20;;
21270;SDS011;10795;50.796;3.860;2022-11-15T13:44:57;6.45;;;1.50;;
21270;SDS011;10795;50.796;3.860;2022-11-15T13:47:26;4.90;;;1.20;;
21270;SDS011;10795;50.796;3.860;2022-11-15T13:49:53;3.45;;;1.45;;
21270;SDS011;10795;50.796;3.860;2022-11-15T13:52:22;2.80;;;1.25;;
21270;SDS011;10795;50.796;3.860;2022-11-15T13:54:57;3.05;;;1.35;;
21270;SDS011;10795;50.796;3.860;2022-11-15T14:00:39;3.03;;;0.90;;
21270;SDS011;10795;50.796;3.860;2022-11-15T14:03:27;1.60;;;1.00;;
21270;SDS011;10795;50.796;3.860;2022-11-15T14:06:06;3.45;;;1.48;;
21270;SDS011;10795;50.796;3.860;2022-11-15T14:08:37;2.88;;;1.35;;
21270;SDS011;10795;50.796;3.860;2022-11-15T14:11:05;2.00;;;1.00;;
21270;SDS011;10795;50.796;3.860;2022-11-15T14:13:33;3.53;;;1.20;;
21270;SDS011;10795;50.796;3.860;2022-11-15T14:16:15;2.95;;;1.27;;
21270;SDS011;10795;50.796;3.860;2022-11-15T14:18:45;2.25;;;1.45;;
21270;SDS011;10795;50.796;3.860;2022-11-15T14:21:18;5.13;;;1.23;;
21270;SDS011;10795;50.796;3.860;2022-11-15T14:23:45;3.78;;;1.55;;
21270;SDS011;10795;50.796;3.860;2022-11-15T14:26:25;3.33;;;1.40;;
21270;SDS011;10795;50.796;3.860;2022-11-15T14:31:47;4.18;;;1.70;;
21270;SDS011;10795;50.796;3.860;2022-11-15T14:34:13;6.05;;;1.60;;
21270;SDS011;10795;50.796;3.860;2022-11-15T14:36:39;2.95;;;1.50;;
21270;SDS011;10795;50.796;3.860;2022-11-15T14:39:04;2.38;;;1.23;;
21270;SDS011;10795;50.796;3.860;2022-11-15T14:41:33;2.65;;;1.50;;
21270;SDS011;10795;50.796;3.860;2022-11-15T14:44:03;3.22;;;1.58;;
21270;SDS011;10795;50.796;3.860;2022-11-15T14:46:29;6.35;;;1.90;;
21270;SDS011;10795;50.796;3.860;2022-11-15T14:48:55;4.53;;;1.92;;
21270;SDS011;10795;50.796;3.860;2022-11-15T14:51:21;3.83;;;2.33;;
21270;SDS011;10795;50.796;3.860;2022-11-15T14:53:47;4.18;;;2.97;;
21270;SDS011;10795;50.796;3.860;2022-11-15T14:56:13;5.38;;;3.00;;
21270;SDS011;10795;50.796;3.860;2022-11-15T14:58:41;7.07;;;4.65;;
21270;SDS011;10795;50.796;3.860;2022-11-15T15:01:25;5.13;;;3.55;;
21270;SDS011;10795;50.796;3.860;2022-11-15T15:03:52;12.45;;;7.88;;
21270;SDS011;10795;50.796;3.860;2022-11-15T15:06:21;5.57;;;4.93;;
21270;SDS011;10795;50.796;3.860;2022-11-15T15:08:47;6.07;;;3.97;;
21270;SDS011;10795;50.796;3.860;2022-11-15T15:11:28;9.30;;;4.35;;
21270;SDS011;10795;50.796;3.860;2022-11-15T15:16:22;7.10;;;4.43;;
21270;SDS011;10795;50.796;3.860;2022-11-15T15:18:51;5.05;;;3.70;;
21270;SDS011;10795;50.796;3.860;2022-11-15T15:21:24;3.50;;;2.88;;
21270;SDS011;10795;50.796;3.860;2022-11-15T15:23:52;5.13;;;3.55;;
21270;SDS011;10795;50.796;3.860;2022-11-15T15:26:21;5.30;;;3.13;;
21270;SDS011;10795;50.796;3.860;2022-11-15T15:28:48;6.70;;;3.15;;
21270;SDS011;10795;50.796;3.860;2022-11-15T15:31:16;5.40;;;3.78;;
21270;SDS011;10795;50.796;3.860;2022-11-15T15:33:41;3.42;;;2.90;;
21270;SDS011;10795;50.796;3.860;2022-11-15T15:36:11;5.57;;;3.15;;
21270;SDS011;10795;50.796;3.860;2022-11-15T15:38:37;3.75;;;3.33;;
21270;SDS011;10795;50.796;3.860;2022-11-15T15:41:08;5.97;;;4.30;;
21270;SDS011;10795;50.796;3.860;2022-11-15T15:43:35;4.10;;;3.65;;
21270;SDS011;10795;50.796;3.860;2022-11-15T15:46:00;3.45;;;3.15;;
21270;SDS011;10795;50.796;3.860;2022-11-15T15:48:26;3.70;;;3.13;;
21270;SDS011;10795;50.796;3.860;2022-11-15T15:50:52;4.45;;;2.70;;
21270;SDS011;10795;50.796;3.860;2022-11-15T15:53:18;4.32;;;3.03;;
21270;SDS011;10795;50.796;3.860;2022-11-15T15:55:43;4.75;;;3.20;;
21270;SDS011;10795;50.796;3.860;2022-11-15T15:58:09;4.40;;;3.20;;
21270;SDS011;10795;50.796;3.860;2022-11-15T16:00:35;4.75;;;3.20;;
21270;SDS011;10795;50.796;3.860;2022-11-15T16:03:02;5.43;;;3.08;;
21270;SDS011;10795;50.796;3.860;2022-11-15T16:05:28;3.65;;;3.30;;
21270;SDS011;10795;50.796;3.860;2022-11-15T16:07:54;2.83;;;2.63;;
21270;SDS011;10795;50.796;3.860;2022-11-15T16:10:38;4.03;;;2.55;;
21270;SDS011;10795;50.796;3.860;2022-11-15T16:13:03;3.63;;;2.83;;
21270;SDS011;10795;50.796;3.860;2022-11-15T16:15:29;4.00;;;2.50;;
21270;SDS011;10795;50.796;3.860;2022-11-15T16:17:57;2.83;;;2.40;;
21270;SDS011;10795;50.796;3.860;2022-11-15T16:20:29;5.72;;;3.60;;
21270;SDS011;10795;50.796;3.860;2022-11-15T16:23:06;4.25;;;2.35;;
21270;SDS011;10795;50.796;3.860;2022-11-15T16:25:34;2.83;;;2.35;;
21270;SDS011;10795;50.796;3.860;2022-11-15T16:28:05;3.97;;;3.33;;
21270;SDS011;10795;50.796;3.860;2022-11-15T16:30:41;4.00;;;2.95;;
21270;SDS011;10795;50.796;3.860;2022-11-15T16:33:07;6.80;;;4.65;;
21270;SDS011;10795;50.796;3.860;2022-11-15T16:35:33;3.35;;;2.97;;
21270;SDS011;10795;50.796;3.860;2022-11-15T16:37:59;4.13;;;3.20;;
21270;SDS011;10795;50.796;3.860;2022-11-15T16:42:57;3.85;;;3.20;;
21270;SDS011;10795;50.796;3.860;2022-11-15T16:45:24;3.17;;;2.58;;
21270;SDS011;10795;50.796;3.860;2022-11-15T16:47:51;6.05;;;3.47;;
21270;SDS011;10795;50.796;3.860;2022-11-15T16:50:19;3.45;;;3.03;;
21270;SDS011;10795;50.796;3.860;2022-11-15T16:52:50;2.17;;;1.92;;
21270;SDS011;10795;50.796;3.860;2022-11-15T16:55:22;2.50;;;2.30;;
21270;SDS011;10795;50.796;3.860;2022-11-15T16:57:49;2.47;;;2.28;;
21270;SDS011;10795;50.796;3.860;2022-11-15T17:00:15;4.32;;;2.85;;
21270;SDS011;10795;50.796;3.860;2022-11-15T17:02:42;2.72;;;2.25;;
21270;SDS011;10795;50.796;3.860;2022-11-15T17:05:09;3.72;;;2.25;;
21270;SDS011;10795;50.796;3.860;2022-11-15T17:07:35;3.80;;;3.42;;
21270;SDS011;10795;50.796;3.860;2022-11-15T17:10:01;2.90;;;2.70;;
21270;SDS011;10795;50.796;3.860;2022-11-15T17:12:27;3.00;;;2.60;;
21270;SDS011;10795;50.796;3.860;2022-11-15T17:14:55;3.40;;;2.38;;
21270;SDS011;10795;50.796;3.860;2022-11-15T17:17:21;4.60;;;3.45;;
21270;SDS011;10795;50.796;3.860;2022-11-15T17:19:46;5.70;;;3.30;;
21270;SDS011;10795;50.796;3.860;2022-11-15T17:22:12;6.25;;;3.90;;
21270;SDS011;10795;50.796;3.860;2022-11-15T17:24:38;5.72;;;3.17;;
21270;SDS011;10795;50.796;3.860;2022-11-15T17:27:03;2.92;;;2.70;;
21270;SDS011;10795;50.796;3.860;2022-11-15T17:29:29;4.03;;;3.65;;
21270;SDS011;10795;50.796;3.860;2022-11-15T17:31:55;5.15;;;3.78;;
21270;SDS011;10795;50.796;3.860;2022-11-15T17:34:21;3.15;;;2.58;;
21270;SDS011;10795;50.796;3.860;2022-11-15T17:36:47;6.95;;;5.30;;
21270;SDS011;10795;50.796;3.860;2022-11-15T17:39:14;5.03;;;4.30;;
21270;SDS011;10795;50.796;3.860;2022-11-15T17:41:39;7.60;;;5.25;;
21270;SDS011;10795;50.796;3.860;2022-11-15T17:44:05;6.32;;;4.50;;
21270;SDS011;10795;50.796;3.860;2022-11-15T17:46:31;5.90;;;4.30;;
21270;SDS011;10795;50.796;3.860;2022-11-15T17:48:58;5.25;;;4.75;;
21270;SDS011;10795;50.796;3.860;2022-11-15T17:51:23;7.40;;;6.28;;
21270;SDS011;10795;50.796;3.860;2022-11-15T17:53:50;5.82;;;4.95;;
21270;SDS011;10795;50.796;3.860;2022-11-15T17:56:20;3.63;;;3.25;;
21270;SDS011;10795;50.796;3.860;2022-11-15T17:58:51;4.97;;;4.47;;
21270;SDS011;10795;50.796;3.860;2022-11-15T18:01:28;3.40;;;3.10;;
21270;SDS011;10795;50.796;3.860;2022-11-15T18:03:55;5.65;;;4.85;;
21270;SDS011;10795;50.796;3.860;2022-11-15T18:06:24;6.03;;;4.95;;
21270;SDS011;10795;50.796;3.860;2022-11-15T18:08:52;4.60;;;3.55;;
21270;SDS011;10795;50.796;3.860;2022-11-15T18:11:24;4.18;;;2.92;;
21270;SDS011;10795;50.796;3.860;2022-11-15T18:13:56;6.05;;;4.07;;